sensor_id;sensor_type;location;lat;lon;timestamp;pressure;altitude;pressure_sealevel;temperature
18474;BMP180;30265;52.408;13.500;2023-04-26T00:08:19;101794.00;;;10.20
18474;BMP180;30265;52.408;13.500;2023-04-26T00:18:46;101786.00;;;10.10
18474;BMP180;30265;52.408;13.500;2023-04-26T00:29:10;101783.00;;;10.00
18474;BMP180;30265;52.408;13.500;2023-04-26T00:39:32;101799.00;;;9.80
18474;BMP180;30265;52.408;13.500;2023-04-26T00:50:03;101800.00;;;9.70
18474;BMP180;30265;52.408;13.500;2023-04-26T01:00:28;101795.00;;;9.70
18474;BMP180;30265;52.408;13.500;2023-04-26T01:10:53;101806.00;;;9.70
18474;BMP180;30265;52.408;13.500;2023-04-26T01:21:18;101803.00;;;9.60
18474;BMP180;30265;52.408;13.500;2023-04-26T01:31:43;101820.00;;;9.40
18474;BMP180;30265;52.408;13.500;2023-04-26T01:42:21;101828.00;;;9.20
18474;BMP180;30265;52.408;13.500;2023-04-26T01:52:44;101837.00;;;9.20
18474;BMP180;30265;52.408;13.500;2023-04-26T02:03:06;101843.00;;;9.20
18474;BMP180;30265;52.408;13.500;2023-04-26T02:13:31;101825.00;;;9.20
18474;BMP180;30265;52.408;13.500;2023-04-26T02:23:53;101827.00;;;9.00
18474;BMP180;30265;52.408;13.500;2023-04-26T02:34:18;101839.00;;;9.00
18474;BMP180;30265;52.408;13.500;2023-04-26T02:44:40;101835.00;;;8.80
18474;BMP180;30265;52.408;13.500;2023-04-26T02:55:05;101839.00;;;8.70
18474;BMP180;30265;52.408;13.500;2023-04-26T03:05:28;101845.00;;;8.60
18474;BMP180;30265;52.408;13.500;2023-04-26T03:15:51;101850.00;;;8.60
18474;BMP180;30265;52.408;13.500;2023-04-26T03:26:14;101845.00;;;8.60
18474;BMP180;30265;52.408;13.500;2023-04-26T03:36:41;101861.00;;;8.60
18474;BMP180;30265;52.408;13.500;2023-04-26T03:47:05;101857.00;;;8.40
18474;BMP180;30265;52.408;13.500;2023-04-26T03:57:28;101871.00;;;8.30
18474;BMP180;30265;52.408;13.500;2023-04-26T04:07:50;101870.00;;;8.40
18474;BMP180;30265;52.408;13.500;2023-04-26T04:18:20;101876.00;;;8.70
18474;BMP180;30265;52.408;13.500;2023-04-26T04:28:42;101874.00;;;9.00
18474;BMP180;30265;52.408;13.500;2023-04-26T04:39:06;101877.00;;;9.00
18474;BMP180;30265;52.408;13.500;2023-04-26T04:49:33;101873.00;;;9.20
18474;BMP180;30265;52.408;13.500;2023-04-26T04:59:58;101885.00;;;9.40
18474;BMP180;30265;52.408;13.500;2023-04-26T05:10:29;101873.00;;;9.80
18474;BMP180;30265;52.408;13.500;2023-04-26T05:20:52;101878.00;;;10.10
18474;BMP180;30265;52.408;13.500;2023-04-26T05:31:14;101872.00;;;10.40
18474;BMP180;30265;52.408;13.500;2023-04-26T05:41:48;101893.00;;;10.60
18474;BMP180;30265;52.408;13.500;2023-04-26T05:52:11;101891.00;;;10.90
18474;BMP180;30265;52.408;13.500;2023-04-26T06:02:35;101884.00;;;11.10
18474;BMP180;30265;52.408;13.500;2023-04-26T06:12:58;101887.00;;;11.50
18474;BMP180;30265;52.408;13.500;2023-04-26T06:23:23;101888.00;;;11.50
18474;BMP180;30265;52.408;13.500;2023-04-26T06:33:45;101879.00;;;11.70
18474;BMP180;30265;52.408;13.500;2023-04-26T06:44:08;101897.00;;;11.80
18474;BMP180;30265;52.408;13.500;2023-04-26T06:54:34;101881.00;;;12.70
18474;BMP180;30265;52.408;13.500;2023-04-26T07:05:14;101863.00;;;13.00
18474;BMP180;30265;52.408;13.500;2023-04-26T07:15:36;101910.00;;;12.50
18474;BMP180;30265;52.408;13.500;2023-04-26T07:26:00;101891.00;;;12.70
18474;BMP180;30265;52.408;13.500;2023-04-26T07:36:23;101888.00;;;13.20
18474;BMP180;30265;52.408;13.500;2023-04-26T07:46:48;101889.00;;;14.10
18474;BMP180;30265;52.408;13.500;2023-04-26T07:57:10;101889.00;;;13.70
18474;BMP180;30265;52.408;13.500;2023-04-26T08:07:33;101892.00;;;13.40
18474;BMP180;30265;52.408;13.500;2023-04-26T08:17:54;101914.00;;;12.60
18474;BMP180;30265;52.408;13.500;2023-04-26T08:28:18;101898.00;;;14.70
18474;BMP180;30265;52.408;13.500;2023-04-26T08:38:40;101930.00;;;13.00
18474;BMP180;30265;52.408;13.500;2023-04-26T08:49:12;101950.00;;;12.80
18474;BMP180;30265;52.408;13.500;2023-04-26T08:59:35;101912.00;;;13.80
18474;BMP180;30265;52.408;13.500;2023-04-26T09:09:58;101937.00;;;13.20
18474;BMP180;30265;52.408;13.500;2023-04-26T09:20:22;101906.00;;;14.30
18474;BMP180;30265;52.408;13.500;2023-04-26T09:30:46;101887.00;;;14.40
18474;BMP180;30265;52.408;13.500;2023-04-26T09:41:09;101899.00;;;14.40
18474;BMP180;30265;52.408;13.500;2023-04-26T09:51:32;101912.00;;;14.00
18474;BMP180;30265;52.408;13.500;2023-04-26T10:01:54;101922.00;;;13.70
18474;BMP180;30265;52.408;13.500;2023-04-26T10:12:20;101913.00;;;13.80
18474;BMP180;30265;52.408;13.500;2023-04-26T10:22:44;101915.00;;;13.80
18474;BMP180;30265;52.408;13.500;2023-04-26T10:33:16;101909.00;;;14.20
18474;BMP180;30265;52.408;13.500;2023-04-26T10:43:41;101880.00;;;15.50
18474;BMP180;30265;52.408;13.500;2023-04-26T10:54:04;101921.00;;;14.40
18474;BMP180;30265;52.408;13.500;2023-04-26T11:04:49;101915.00;;;14.20
18474;BMP180;30265;52.408;13.500;2023-04-26T11:15:15;101919.00;;;14.10
18474;BMP180;30265;52.408;13.500;2023-04-26T11:25:38;101918.00;;;14.50
18474;BMP180;30265;52.408;13.500;2023-04-26T11:36:02;101913.00;;;14.00
18474;BMP180;30265;52.408;13.500;2023-04-26T11:46:24;101907.00;;;15.00
18474;BMP180;30265;52.408;13.500;2023-04-26T11:56:50;101920.00;;;14.50
18474;BMP180;30265;52.408;13.500;2023-04-26T12:07:17;101929.00;;;14.40
18474;BMP180;30265;52.408;13.500;2023-04-26T12:17:50;101942.00;;;14.50
18474;BMP180;30265;52.408;13.500;2023-04-26T12:28:12;101936.00;;;14.70
18474;BMP180;30265;52.408;13.500;2023-04-26T12:38:38;101921.00;;;15.40
18474;BMP180;30265;52.408;13.500;2023-04-26T12:49:00;101940.00;;;14.50
18474;BMP180;30265;52.408;13.500;2023-04-26T12:59:24;101932.00;;;14.70
18474;BMP180;30265;52.408;13.500;2023-04-26T13:09:46;101898.00;;;15.40
18474;BMP180;30265;52.408;13.500;2023-04-26T13:20:12;101900.00;;;16.20
18474;BMP180;30265;52.408;13.500;2023-04-26T13:30:34;101885.00;;;17.20
18474;BMP180;30265;52.408;13.500;2023-04-26T13:40:57;101877.00;;;17.80
18474;BMP180;30265;52.408;13.500;2023-04-26T13:51:19;101918.00;;;15.60
18474;BMP180;30265;52.408;13.500;2023-04-26T14:01:43;101926.00;;;15.60
18474;BMP180;30265;52.408;13.500;2023-04-26T14:12:12;101961.00;;;14.70
18474;BMP180;30265;52.408;13.500;2023-04-26T14:22:38;101934.00;;;15.50
18474;BMP180;30265;52.408;13.500;2023-04-26T14:33:00;101955.00;;;15.20
18474;BMP180;30265;52.408;13.500;2023-04-26T14:43:23;101933.00;;;15.60
18474;BMP180;30265;52.408;13.500;2023-04-26T14:53:45;101921.00;;;16.20
18474;BMP180;30265;52.408;13.500;2023-04-26T15:04:08;101943.00;;;15.50
18474;BMP180;30265;52.408;13.500;2023-04-26T15:14:31;101964.00;;;15.20
18474;BMP180;30265;52.408;13.500;2023-04-26T15:24:54;101936.00;;;15.70
18474;BMP180;30265;52.408;13.500;2023-04-26T15:35:16;101932.00;;;16.00
18474;BMP180;30265;52.408;13.500;2023-04-26T15:45:39;101920.00;;;16.40
18474;BMP180;30265;52.408;13.500;2023-04-26T15:56:02;101923.00;;;16.00
18474;BMP180;30265;52.408;13.500;2023-04-26T16:06:25;101943.00;;;15.40
18474;BMP180;30265;52.408;13.500;2023-04-26T16:16:47;101958.00;;;15.40
18474;BMP180;30265;52.408;13.500;2023-04-26T16:27:11;101953.00;;;15.20
18474;BMP180;30265;52.408;13.500;2023-04-26T16:37:32;101957.00;;;15.00
18474;BMP180;30265;52.408;13.500;2023-04-26T16:47:56;101969.00;;;15.00
18474;BMP180;30265;52.408;13.500;2023-04-26T16:58:18;101961.00;;;15.30
18474;BMP180;30265;52.408;13.500;2023-04-26T17:08:42;101976.00;;;15.00
18474;BMP180;30265;52.408;13.500;2023-04-26T17:19:04;101965.00;;;15.30
18474;BMP180;30265;52.408;13.500;2023-04-26T17:29:29;101982.00;;;15.10
18474;BMP180;30265;52.408;13.500;2023-04-26T17:39:50;101993.00;;;15.10
18474;BMP180;30265;52.408;13.500;2023-04-26T17:50:14;102005.00;;;14.70
18474;BMP180;30265;52.408;13.500;2023-04-26T18:00:36;102016.00;;;14.30
18474;BMP180;30265;52.408;13.500;2023-04-26T18:11:00;102033.00;;;14.20
18474;BMP180;30265;52.408;13.500;2023-04-26T18:21:22;102053.00;;;13.60
18474;BMP180;30265;52.408;13.500;2023-04-26T18:31:45;102060.00;;;13.40
18474;BMP180;30265;52.408;13.500;2023-04-26T18:42:09;102076.00;;;13.00
18474;BMP180;30265;52.408;13.500;2023-04-26T18:52:33;102093.00;;;12.80
18474;BMP180;30265;52.408;13.500;2023-04-26T19:02:54;102104.00;;;12.60
18474;BMP180;30265;52.408;13.500;2023-04-26T19:13:18;102114.00;;;12.50
18474;BMP180;30265;52.408;13.500;2023-04-26T19:23:40;102104.00;;;12.50
18474;BMP180;30265;52.408;13.500;2023-04-26T19:34:07;102112.00;;;12.20
18474;BMP180;30265;52.408;13.500;2023-04-26T19:44:32;102130.00;;;12.00
18474;BMP180;30265;52.408;13.500;2023-04-26T19:54:55;102138.00;;;11.60
18474;BMP180;30265;52.408;13.500;2023-04-26T20:05:16;102140.00;;;11.80
18474;BMP180;30265;52.408;13.500;2023-04-26T20:15:39;102156.00;;;11.70
18474;BMP180;30265;52.408;13.500;2023-04-26T20:26:01;102154.00;;;11.70
18474;BMP180;30265;52.408;13.500;2023-04-26T20:36:24;102154.00;;;11.50
18474;BMP180;30265;52.408;13.500;2023-04-26T20:46:46;102156.00;;;11.80
18474;BMP180;30265;52.408;13.500;2023-04-26T20:57:09;102157.00;;;11.90
18474;BMP180;30265;52.408;13.500;2023-04-26T21:07:31;102163.00;;;11.50
18474;BMP180;30265;52.408;13.500;2023-04-26T21:17:54;102159.00;;;11.60
18474;BMP180;30265;52.408;13.500;2023-04-26T21:28:16;102162.00;;;11.50
18474;BMP180;30265;52.408;13.500;2023-04-26T21:38:39;102164.00;;;11.30
18474;BMP180;30265;52.408;13.500;2023-04-26T21:49:01;102172.00;;;11.50
18474;BMP180;30265;52.408;13.500;2023-04-26T21:59:23;102171.00;;;11.50
18474;BMP180;30265;52.408;13.500;2023-04-26T22:09:45;102184.00;;;11.40
18474;BMP180;30265;52.408;13.500;2023-04-26T22:20:10;102183.00;;;11.40
18474;BMP180;30265;52.408;13.500;2023-04-26T22:30:32;102198.00;;;11.60
18474;BMP180;30265;52.408;13.500;2023-04-26T22:40:55;102205.00;;;11.60
18474;BMP180;30265;52.408;13.500;2023-04-26T22:51:17;102205.00;;;11.60
18474;BMP180;30265;52.408;13.500;2023-04-26T23:01:40;102216.00;;;11.80
18474;BMP180;30265;52.408;13.500;2023-04-26T23:12:03;102204.00;;;12.10
18474;BMP180;30265;52.408;13.500;2023-04-26T23:22:26;102219.00;;;12.30
18474;BMP180;30265;52.408;13.500;2023-04-26T23:32:48;102212.00;;;12.30
18474;BMP180;30265;52.408;13.500;2023-04-26T23:43:12;102221.00;;;12.30
18474;BMP180;30265;52.408;13.500;2023-04-26T23:53:34;102211.00;;;12.40
